Terminal Aerodrome Forecast
Issued by NWS St Louis, MO

Home | Current Version | Previous Version | Text Only | Print | Product List | Glossary On
Versions: 1 2 3 4 5 6 7 8 9 10 11 12 13 14 15 16 17 18 19 20 21 22 23 24 25 26 27
669
FTUS43 KLSX 241306 AAA
TAFSTL
TAF AMD
KSTL 241306Z 2413/2518 13006KT P6SM OVC020
      TEMPO 2413/2415 OVC018
     FM241700 14007KT P6SM BKN200
     FM242000 13012G19KT P6SM SCT200
     FM250300 15011KT P6SM BKN040 WS020/20040KT
     FM251000 21009KT P6SM SCT200
     FM251400 25011G19KT P6SM SCT150=

USA.gov is the U.S. government's official web portal to all federal, state and local government web resources and services.